sensor_id;sensor_type;location;lat;lon;timestamp;temperature;humidity
23385;DHT22;11865;45.394;10.978;2023-02-15T00:00:09;2.60;99.90
23385;DHT22;11865;45.394;10.978;2023-02-15T00:02:39;2.50;99.90
23385;DHT22;11865;45.394;10.978;2023-02-15T00:05:07;2.50;99.90
23385;DHT22;11865;45.394;10.978;2023-02-15T00:07:35;2.50;99.90
23385;DHT22;11865;45.394;10.978;2023-02-15T00:10:03;2.50;99.90
23385;DHT22;11865;45.394;10.978;2023-02-15T00:12:31;2.50;99.90
23385;DHT22;11865;45.394;10.978;2023-02-15T00:14:58;2.40;99.90
23385;DHT22;11865;45.394;10.978;2023-02-15T00:17:29;2.40;99.90
23385;DHT22;11865;45.394;10.978;2023-02-15T00:19:56;2.40;99.90
23385;DHT22;11865;45.394;10.978;2023-02-15T00:22:25;2.40;99.90
23385;DHT22;11865;45.394;10.978;2023-02-15T00:24:53;2.40;99.90
23385;DHT22;11865;45.394;10.978;2023-02-15T00:27:20;2.40;99.90
23385;DHT22;11865;45.394;10.978;2023-02-15T00:29:48;2.40;99.90
23385;DHT22;11865;45.394;10.978;2023-02-15T00:32:16;2.30;99.90
23385;DHT22;11865;45.394;10.978;2023-02-15T00:34:43;2.20;99.90
23385;DHT22;11865;45.394;10.978;2023-02-15T00:37:11;2.20;99.90
23385;DHT22;11865;45.394;10.978;2023-02-15T00:39:38;2.20;99.90
23385;DHT22;11865;45.394;10.978;2023-02-15T00:42:06;2.30;99.90
23385;DHT22;11865;45.394;10.978;2023-02-15T00:44:33;2.30;99.90
23385;DHT22;11865;45.394;10.978;2023-02-15T00:47:01;2.30;99.90
23385;DHT22;11865;45.394;10.978;2023-02-15T00:49:28;2.30;99.90
23385;DHT22;11865;45.394;10.978;2023-02-15T00:51:56;2.80;99.90
23385;DHT22;11865;45.394;10.978;2023-02-15T00:54:23;3.00;99.90
23385;DHT22;11865;45.394;10.978;2023-02-15T00:56:51;3.20;99.90
23385;DHT22;11865;45.394;10.978;2023-02-15T00:59:18;3.90;99.90
23385;DHT22;11865;45.394;10.978;2023-02-15T01:01:47;3.90;99.90
23385;DHT22;11865;45.394;10.978;2023-02-15T01:04:15;3.90;99.90
23385;DHT22;11865;45.394;10.978;2023-02-15T01:06:42;4.20;99.90
23385;DHT22;11865;45.394;10.978;2023-02-15T01:09:10;4.60;99.90
23385;DHT22;11865;45.394;10.978;2023-02-15T01:11:37;4.20;99.90
23385;DHT22;11865;45.394;10.978;2023-02-15T01:14:05;3.70;99.90
23385;DHT22;11865;45.394;10.978;2023-02-15T01:16:32;3.50;99.90
23385;DHT22;11865;45.394;10.978;2023-02-15T01:19:00;3.00;99.90
23385;DHT22;11865;45.394;10.978;2023-02-15T01:21:31;2.90;99.90
23385;DHT22;11865;45.394;10.978;2023-02-15T01:24:02;2.60;99.90
23385;DHT22;11865;45.394;10.978;2023-02-15T01:26:30;2.50;99.90
23385;DHT22;11865;45.394;10.978;2023-02-15T01:28:58;2.40;99.90
23385;DHT22;11865;45.394;10.978;2023-02-15T01:31:25;2.30;99.90
23385;DHT22;11865;45.394;10.978;2023-02-15T01:33:53;2.30;99.90
23385;DHT22;11865;45.394;10.978;2023-02-15T01:36:21;2.10;99.90
23385;DHT22;11865;45.394;10.978;2023-02-15T01:38:48;2.30;99.90
23385;DHT22;11865;45.394;10.978;2023-02-15T01:41:16;2.60;99.90
23385;DHT22;11865;45.394;10.978;2023-02-15T01:43:59;2.80;99.90
23385;DHT22;11865;45.394;10.978;2023-02-15T01:46:40;3.00;99.90
23385;DHT22;11865;45.394;10.978;2023-02-15T01:49:16;2.90;99.90
23385;DHT22;11865;45.394;10.978;2023-02-15T01:51:45;2.50;99.90
23385;DHT22;11865;45.394;10.978;2023-02-15T01:54:32;2.40;99.90
23385;DHT22;11865;45.394;10.978;2023-02-15T01:57:12;2.10;99.90
23385;DHT22;11865;45.394;10.978;2023-02-15T01:59:43;2.00;99.90
23385;DHT22;11865;45.394;10.978;2023-02-15T02:02:13;2.10;99.90
23385;DHT22;11865;45.394;10.978;2023-02-15T02:04:48;2.10;99.90
23385;DHT22;11865;45.394;10.978;2023-02-15T02:07:21;2.20;99.90
23385;DHT22;11865;45.394;10.978;2023-02-15T02:09:50;2.00;99.90
23385;DHT22;11865;45.394;10.978;2023-02-15T02:12:18;1.90;99.90
23385;DHT22;11865;45.394;10.978;2023-02-15T02:14:47;1.80;99.90
23385;DHT22;11865;45.394;10.978;2023-02-15T02:17:29;1.80;99.90
23385;DHT22;11865;45.394;10.978;2023-02-15T02:28:02;1.70;99.90
23385;DHT22;11865;45.394;10.978;2023-02-15T02:38:42;2.70;99.90
23385;DHT22;11865;45.394;10.978;2023-02-15T02:46:53;2.10;99.90
23385;DHT22;11865;45.394;10.978;2023-02-15T02:49:36;2.00;99.90
23385;DHT22;11865;45.394;10.978;2023-02-15T02:52:31;2.10;99.90
23385;DHT22;11865;45.394;10.978;2023-02-15T02:54:54;2.50;99.90
23385;DHT22;11865;45.394;10.978;2023-02-15T02:57:23;3.10;99.90
23385;DHT22;11865;45.394;10.978;2023-02-15T02:59:52;3.20;99.90
23385;DHT22;11865;45.394;10.978;2023-02-15T03:02:25;3.10;99.90
23385;DHT22;11865;45.394;10.978;2023-02-15T03:05:02;3.10;99.90
23385;DHT22;11865;45.394;10.978;2023-02-15T03:07:31;3.80;99.90
23385;DHT22;11865;45.394;10.978;2023-02-15T03:10:04;4.30;99.90
23385;DHT22;11865;45.394;10.978;2023-02-15T03:12:34;4.60;99.90
23385;DHT22;11865;45.394;10.978;2023-02-15T03:15:34;3.70;99.90
23385;DHT22;11865;45.394;10.978;2023-02-15T03:18:25;2.90;99.90
23385;DHT22;11865;45.394;10.978;2023-02-15T03:20:55;2.40;99.90
23385;DHT22;11865;45.394;10.978;2023-02-15T03:23:25;2.50;99.90
23385;DHT22;11865;45.394;10.978;2023-02-15T03:26:03;2.40;99.90
23385;DHT22;11865;45.394;10.978;2023-02-15T03:28:42;2.20;99.90
23385;DHT22;11865;45.394;10.978;2023-02-15T03:31:13;2.10;99.90
23385;DHT22;11865;45.394;10.978;2023-02-15T03:34:16;2.10;99.90
23385;DHT22;11865;45.394;10.978;2023-02-15T03:39:35;2.50;99.90
23385;DHT22;11865;45.394;10.978;2023-02-15T03:42:10;2.80;99.90
23385;DHT22;11865;45.394;10.978;2023-02-15T03:47:18;2.60;99.90
23385;DHT22;11865;45.394;10.978;2023-02-15T03:52:53;2.10;99.90
23385;DHT22;11865;45.394;10.978;2023-02-15T03:55:22;2.00;99.90
23385;DHT22;11865;45.394;10.978;2023-02-15T03:57:50;1.80;99.90
23385;DHT22;11865;45.394;10.978;2023-02-15T04:00:38;1.70;99.90
23385;DHT22;11865;45.394;10.978;2023-02-15T04:03:32;1.60;99.90
23385;DHT22;11865;45.394;10.978;2023-02-15T04:06:02;1.60;99.90
23385;DHT22;11865;45.394;10.978;2023-02-15T04:08:30;1.50;99.90
23385;DHT22;11865;45.394;10.978;2023-02-15T04:11:16;1.50;99.90
23385;DHT22;11865;45.394;10.978;2023-02-15T04:13:44;1.70;99.90
23385;DHT22;11865;45.394;10.978;2023-02-15T04:16:11;1.60;99.90
23385;DHT22;11865;45.394;10.978;2023-02-15T04:18:41;1.70;99.90
23385;DHT22;11865;45.394;10.978;2023-02-15T04:21:30;1.60;99.90
23385;DHT22;11865;45.394;10.978;2023-02-15T04:24:16;1.50;99.90
23385;DHT22;11865;45.394;10.978;2023-02-15T04:27:03;1.50;99.90
23385;DHT22;11865;45.394;10.978;2023-02-15T04:29:32;1.40;99.90
23385;DHT22;11865;45.394;10.978;2023-02-15T04:32:01;1.30;99.90
23385;DHT22;11865;45.394;10.978;2023-02-15T04:34:29;1.30;99.90
23385;DHT22;11865;45.394;10.978;2023-02-15T04:36:57;1.40;99.90
23385;DHT22;11865;45.394;10.978;2023-02-15T04:39:24;1.30;99.90
23385;DHT22;11865;45.394;10.978;2023-02-15T04:41:52;1.20;99.90
23385;DHT22;11865;45.394;10.978;2023-02-15T04:44:19;1.20;99.90
23385;DHT22;11865;45.394;10.978;2023-02-15T04:46:46;1.20;99.90
23385;DHT22;11865;45.394;10.978;2023-02-15T04:49:14;1.10;99.90
23385;DHT22;11865;45.394;10.978;2023-02-15T04:51:42;1.00;99.90
23385;DHT22;11865;45.394;10.978;2023-02-15T04:54:09;1.10;99.90
23385;DHT22;11865;45.394;10.978;2023-02-15T04:56:36;1.10;99.90
23385;DHT22;11865;45.394;10.978;2023-02-15T04:59:06;1.00;99.90
23385;DHT22;11865;45.394;10.978;2023-02-15T05:01:33;1.00;99.90
23385;DHT22;11865;45.394;10.978;2023-02-15T05:04:00;1.20;99.90
23385;DHT22;11865;45.394;10.978;2023-02-15T05:06:29;1.50;99.90
23385;DHT22;11865;45.394;10.978;2023-02-15T05:08:57;1.60;99.90
23385;DHT22;11865;45.394;10.978;2023-02-15T05:11:26;1.50;99.90
23385;DHT22;11865;45.394;10.978;2023-02-15T05:13:54;1.30;99.90
23385;DHT22;11865;45.394;10.978;2023-02-15T05:16:21;1.30;99.90
23385;DHT22;11865;45.394;10.978;2023-02-15T05:18:49;1.30;99.90
23385;DHT22;11865;45.394;10.978;2023-02-15T05:21:16;1.60;99.90
23385;DHT22;11865;45.394;10.978;2023-02-15T05:23:44;1.60;99.90
23385;DHT22;11865;45.394;10.978;2023-02-15T05:26:16;1.80;99.90
23385;DHT22;11865;45.394;10.978;2023-02-15T05:29:03;2.00;99.90
23385;DHT22;11865;45.394;10.978;2023-02-15T05:31:32;2.30;99.90
23385;DHT22;11865;45.394;10.978;2023-02-15T05:34:00;2.10;99.90
23385;DHT22;11865;45.394;10.978;2023-02-15T05:36:28;1.90;99.90
23385;DHT22;11865;45.394;10.978;2023-02-15T05:38:56;1.90;99.90
23385;DHT22;11865;45.394;10.978;2023-02-15T05:41:23;1.90;99.90
23385;DHT22;11865;45.394;10.978;2023-02-15T05:43:51;2.10;99.90
23385;DHT22;11865;45.394;10.978;2023-02-15T05:46:18;1.70;99.90
23385;DHT22;11865;45.394;10.978;2023-02-15T05:48:46;1.80;99.90
23385;DHT22;11865;45.394;10.978;2023-02-15T05:51:13;1.60;99.90
23385;DHT22;11865;45.394;10.978;2023-02-15T05:53:43;1.30;99.90
23385;DHT22;11865;45.394;10.978;2023-02-15T05:56:11;1.20;99.90
23385;DHT22;11865;45.394;10.978;2023-02-15T05:58:41;1.20;99.90
23385;DHT22;11865;45.394;10.978;2023-02-15T06:03:36;1.00;99.90
23385;DHT22;11865;45.394;10.978;2023-02-15T06:06:04;1.00;99.90
23385;DHT22;11865;45.394;10.978;2023-02-15T06:08:32;1.00;99.90
23385;DHT22;11865;45.394;10.978;2023-02-15T06:11:00;1.10;99.90
23385;DHT22;11865;45.394;10.978;2023-02-15T06:13:28;0.80;99.90
23385;DHT22;11865;45.394;10.978;2023-02-15T06:15:56;0.90;99.90
23385;DHT22;11865;45.394;10.978;2023-02-15T06:18:23;0.90;99.90
23385;DHT22;11865;45.394;10.978;2023-02-15T06:20:51;0.80;99.90
23385;DHT22;11865;45.394;10.978;2023-02-15T06:23:18;0.90;99.90
23385;DHT22;11865;45.394;10.978;2023-02-15T06:25:46;1.00;99.90
23385;DHT22;11865;45.394;10.978;2023-02-15T06:28:14;1.10;99.90
23385;DHT22;11865;45.394;10.978;2023-02-15T06:30:41;1.00;99.90
23385;DHT22;11865;45.394;10.978;2023-02-15T06:33:09;0.80;99.90
23385;DHT22;11865;45.394;10.978;2023-02-15T06:35:36;0.90;99.90
23385;DHT22;11865;45.394;10.978;2023-02-15T06:38:04;1.00;99.90
23385;DHT22;11865;45.394;10.978;2023-02-15T06:40:31;1.20;99.90
23385;DHT22;11865;45.394;10.978;2023-02-15T06:42:59;1.20;99.90
23385;DHT22;11865;45.394;10.978;2023-02-15T06:45:26;1.10;99.90
23385;DHT22;11865;45.394;10.978;2023-02-15T06:47:54;1.40;99.90
23385;DHT22;11865;45.394;10.978;2023-02-15T06:50:21;1.50;99.90
23385;DHT22;11865;45.394;10.978;2023-02-15T06:52:49;1.50;99.90
23385;DHT22;11865;45.394;10.978;2023-02-15T06:55:16;1.50;99.90
23385;DHT22;11865;45.394;10.978;2023-02-15T06:57:44;1.50;99.90
23385;DHT22;11865;45.394;10.978;2023-02-15T07:00:12;1.60;99.90
23385;DHT22;11865;45.394;10.978;2023-02-15T07:02:40;1.60;99.90
23385;DHT22;11865;45.394;10.978;2023-02-15T07:05:07;1.60;99.90
23385;DHT22;11865;45.394;10.978;2023-02-15T07:07:35;1.70;99.90
23385;DHT22;11865;45.394;10.978;2023-02-15T07:10:03;1.80;99.90
23385;DHT22;11865;45.394;10.978;2023-02-15T07:12:30;1.70;99.90
23385;DHT22;11865;45.394;10.978;2023-02-15T07:15:16;1.90;99.90
23385;DHT22;11865;45.394;10.978;2023-02-15T07:17:44;1.90;99.90
23385;DHT22;11865;45.394;10.978;2023-02-15T07:20:15;2.10;99.90
23385;DHT22;11865;45.394;10.978;2023-02-15T07:22:44;2.10;99.90
23385;DHT22;11865;45.394;10.978;2023-02-15T07:25:12;2.20;99.90
23385;DHT22;11865;45.394;10.978;2023-02-15T07:27:39;2.40;99.90
23385;DHT22;11865;45.394;10.978;2023-02-15T07:30:10;2.60;99.90
23385;DHT22;11865;45.394;10.978;2023-02-15T07:32:37;3.00;99.90
23385;DHT22;11865;45.394;10.978;2023-02-15T07:35:25;3.20;99.90
23385;DHT22;11865;45.394;10.978;2023-02-15T07:37:54;3.30;99.90
23385;DHT22;11865;45.394;10.978;2023-02-15T07:40:21;3.20;99.90
23385;DHT22;11865;45.394;10.978;2023-02-15T07:42:50;3.40;99.90
23385;DHT22;11865;45.394;10.978;2023-02-15T07:45:21;3.80;99.90
23385;DHT22;11865;45.394;10.978;2023-02-15T07:47:49;4.00;99.90
23385;DHT22;11865;45.394;10.978;2023-02-15T07:50:16;4.30;99.90
23385;DHT22;11865;45.394;10.978;2023-02-15T07:52:44;4.40;99.90
23385;DHT22;11865;45.394;10.978;2023-02-15T07:55:11;4.60;99.90
23385;DHT22;11865;45.394;10.978;2023-02-15T07:57:44;4.60;99.90
23385;DHT22;11865;45.394;10.978;2023-02-15T08:00:12;4.70;99.90
23385;DHT22;11865;45.394;10.978;2023-02-15T08:02:41;5.00;99.90
23385;DHT22;11865;45.394;10.978;2023-02-15T08:05:08;5.10;99.90
23385;DHT22;11865;45.394;10.978;2023-02-15T08:07:36;5.30;99.90
23385;DHT22;11865;45.394;10.978;2023-02-15T08:10:04;5.40;99.90
23385;DHT22;11865;45.394;10.978;2023-02-15T08:12:31;5.60;99.90
23385;DHT22;11865;45.394;10.978;2023-02-15T08:14:59;5.80;99.90
23385;DHT22;11865;45.394;10.978;2023-02-15T08:17:26;6.10;99.90
23385;DHT22;11865;45.394;10.978;2023-02-15T08:19:54;6.30;99.90
23385;DHT22;11865;45.394;10.978;2023-02-15T08:22:21;6.50;99.90
23385;DHT22;11865;45.394;10.978;2023-02-15T08:24:49;6.80;99.90
23385;DHT22;11865;45.394;10.978;2023-02-15T08:27:16;6.90;99.90
23385;DHT22;11865;45.394;10.978;2023-02-15T08:29:43;7.10;99.90
23385;DHT22;11865;45.394;10.978;2023-02-15T08:32:12;7.30;99.90
23385;DHT22;11865;45.394;10.978;2023-02-15T08:34:41;7.30;99.90
23385;DHT22;11865;45.394;10.978;2023-02-15T08:37:09;7.40;99.90
23385;DHT22;11865;45.394;10.978;2023-02-15T08:39:36;7.60;99.90
23385;DHT22;11865;45.394;10.978;2023-02-15T08:42:04;7.70;99.90
23385;DHT22;11865;45.394;10.978;2023-02-15T08:44:31;7.80;99.90
23385;DHT22;11865;45.394;10.978;2023-02-15T08:46:59;8.20;98.90
23385;DHT22;11865;45.394;10.978;2023-02-15T08:49:31;8.40;98.00
23385;DHT22;11865;45.394;10.978;2023-02-15T08:51:59;8.40;98.30
23385;DHT22;11865;45.394;10.978;2023-02-15T08:54:27;8.40;96.60
23385;DHT22;11865;45.394;10.978;2023-02-15T08:56:54;8.60;96.30
23385;DHT22;11865;45.394;10.978;2023-02-15T08:59:23;8.70;96.70
23385;DHT22;11865;45.394;10.978;2023-02-15T09:01:52;9.00;96.50
23385;DHT22;11865;45.394;10.978;2023-02-15T09:04:21;9.10;95.80
23385;DHT22;11865;45.394;10.978;2023-02-15T09:06:50;9.30;95.50
23385;DHT22;11865;45.394;10.978;2023-02-15T09:09:18;9.50;95.60
23385;DHT22;11865;45.394;10.978;2023-02-15T09:11:50;9.50;95.60
23385;DHT22;11865;45.394;10.978;2023-02-15T09:14:25;9.40;96.40
23385;DHT22;11865;45.394;10.978;2023-02-15T09:16:54;9.50;95.70
23385;DHT22;11865;45.394;10.978;2023-02-15T09:19:22;9.60;95.30
23385;DHT22;11865;45.394;10.978;2023-02-15T09:21:50;9.50;96.00
23385;DHT22;11865;45.394;10.978;2023-02-15T09:24:18;9.60;96.70
23385;DHT22;11865;45.394;10.978;2023-02-15T09:26:47;9.60;96.20
23385;DHT22;11865;45.394;10.978;2023-02-15T09:29:16;9.70;95.90
23385;DHT22;11865;45.394;10.978;2023-02-15T09:31:48;10.00;95.80
23385;DHT22;11865;45.394;10.978;2023-02-15T09:34:20;10.00;95.90
23385;DHT22;11865;45.394;10.978;2023-02-15T09:36:48;9.90;95.30
23385;DHT22;11865;45.394;10.978;2023-02-15T09:39:17;9.90;95.40
23385;DHT22;11865;45.394;10.978;2023-02-15T10:07:13;11.10;94.30
23385;DHT22;11865;45.394;10.978;2023-02-15T10:10:05;11.10;93.90
23385;DHT22;11865;45.394;10.978;2023-02-15T10:12:39;11.00;93.20
23385;DHT22;11865;45.394;10.978;2023-02-15T10:26:58;11.70;93.20
23385;DHT22;11865;45.394;10.978;2023-02-15T10:32:25;11.70;93.60
23385;DHT22;11865;45.394;10.978;2023-02-15T10:54:37;12.00;92.90
23385;DHT22;11865;45.394;10.978;2023-02-15T11:00:13;11.90;93.00
23385;DHT22;11865;45.394;10.978;2023-02-15T11:08:11;12.10;91.00
23385;DHT22;11865;45.394;10.978;2023-02-15T11:10:54;12.30;91.90
23385;DHT22;11865;45.394;10.978;2023-02-15T11:13:26;12.30;92.40
23385;DHT22;11865;45.394;10.978;2023-02-15T11:15:56;12.30;92.20
23385;DHT22;11865;45.394;10.978;2023-02-15T11:23:46;12.30;92.00
23385;DHT22;11865;45.394;10.978;2023-02-15T11:26:34;12.40;91.30
23385;DHT22;11865;45.394;10.978;2023-02-15T11:31:47;12.80;92.00
23385;DHT22;11865;45.394;10.978;2023-02-15T11:34:27;13.00;91.60
23385;DHT22;11865;45.394;10.978;2023-02-15T11:37:01;13.40;91.10
23385;DHT22;11865;45.394;10.978;2023-02-15T11:39:33;13.40;91.20
23385;DHT22;11865;45.394;10.978;2023-02-15T11:42:15;13.30;91.10
23385;DHT22;11865;45.394;10.978;2023-02-15T11:45:04;13.40;90.60
23385;DHT22;11865;45.394;10.978;2023-02-15T11:47:34;13.50;89.60
23385;DHT22;11865;45.394;10.978;2023-02-15T11:50:02;13.90;87.60
23385;DHT22;11865;45.394;10.978;2023-02-15T11:52:30;14.00;88.70
23385;DHT22;11865;45.394;10.978;2023-02-15T11:54:58;14.10;88.10
23385;DHT22;11865;45.394;10.978;2023-02-15T11:57:37;14.10;86.80
23385;DHT22;11865;45.394;10.978;2023-02-15T12:02:45;14.30;87.60
23385;DHT22;11865;45.394;10.978;2023-02-15T12:05:19;14.20;87.70
23385;DHT22;11865;45.394;10.978;2023-02-15T12:08:03;14.20;88.10
23385;DHT22;11865;45.394;10.978;2023-02-15T12:10:52;14.20;87.40
23385;DHT22;11865;45.394;10.978;2023-02-15T12:13:22;14.30;86.70
23385;DHT22;11865;45.394;10.978;2023-02-15T12:15:53;14.40;86.20
23385;DHT22;11865;45.394;10.978;2023-02-15T12:18:39;14.50;85.30
23385;DHT22;11865;45.394;10.978;2023-02-15T12:21:11;14.60;85.90
23385;DHT22;11865;45.394;10.978;2023-02-15T12:23:46;14.50;86.50
23385;DHT22;11865;45.394;10.978;2023-02-15T12:26:32;14.50;86.50
23385;DHT22;11865;45.394;10.978;2023-02-15T12:29:07;14.30;87.50
23385;DHT22;11865;45.394;10.978;2023-02-15T12:31:43;14.40;87.90
23385;DHT22;11865;45.394;10.978;2023-02-15T12:34:22;14.50;86.20
23385;DHT22;11865;45.394;10.978;2023-02-15T12:36:52;14.50;86.80
23385;DHT22;11865;45.394;10.978;2023-02-15T12:39:30;14.50;87.50
23385;DHT22;11865;45.394;10.978;2023-02-15T12:42:02;14.40;87.90
23385;DHT22;11865;45.394;10.978;2023-02-15T12:44:33;14.40;87.40
23385;DHT22;11865;45.394;10.978;2023-02-15T12:49:44;14.80;84.00
23385;DHT22;11865;45.394;10.978;2023-02-15T12:52:24;14.70;85.60
23385;DHT22;11865;45.394;10.978;2023-02-15T12:54:52;14.60;85.80
23385;DHT22;11865;45.394;10.978;2023-02-15T12:57:30;14.70;85.80
23385;DHT22;11865;45.394;10.978;2023-02-15T13:00:06;14.70;85.80
23385;DHT22;11865;45.394;10.978;2023-02-15T13:02:53;14.70;84.60
23385;DHT22;11865;45.394;10.978;2023-02-15T13:05:37;14.70;85.50
23385;DHT22;11865;45.394;10.978;2023-02-15T13:08:15;14.70;85.70
23385;DHT22;11865;45.394;10.978;2023-02-15T13:13:28;15.20;82.40
23385;DHT22;11865;45.394;10.978;2023-02-15T13:16:01;15.10;82.80
23385;DHT22;11865;45.394;10.978;2023-02-15T13:18:38;14.90;84.60
23385;DHT22;11865;45.394;10.978;2023-02-15T13:21:12;15.00;82.10
23385;DHT22;11865;45.394;10.978;2023-02-15T13:23:46;14.90;82.50
23385;DHT22;11865;45.394;10.978;2023-02-15T13:26:19;14.90;83.20
23385;DHT22;11865;45.394;10.978;2023-02-15T13:29:01;15.00;80.80
23385;DHT22;11865;45.394;10.978;2023-02-15T13:31:32;15.00;81.40
23385;DHT22;11865;45.394;10.978;2023-02-15T13:34:07;15.10;83.40
23385;DHT22;11865;45.394;10.978;2023-02-15T13:36:42;15.00;82.80
23385;DHT22;11865;45.394;10.978;2023-02-15T13:47:41;15.20;79.80
23385;DHT22;11865;45.394;10.978;2023-02-15T13:56:36;15.30;81.20
23385;DHT22;11865;45.394;10.978;2023-02-15T14:07:59;15.10;83.70
23385;DHT22;11865;45.394;10.978;2023-02-15T14:18:39;15.20;83.70
23385;DHT22;11865;45.394;10.978;2023-02-15T14:21:31;15.30;83.10
23385;DHT22;11865;45.394;10.978;2023-02-15T14:26:45;15.10;84.50
23385;DHT22;11865;45.394;10.978;2023-02-15T14:31:59;14.90;84.90
23385;DHT22;11865;45.394;10.978;2023-02-15T14:34:52;14.90;85.70
23385;DHT22;11865;45.394;10.978;2023-02-15T14:46:07;15.30;84.20
23385;DHT22;11865;45.394;10.978;2023-02-15T14:48:43;15.50;83.70
23385;DHT22;11865;45.394;10.978;2023-02-15T14:54:10;15.30;84.50
23385;DHT22;11865;45.394;10.978;2023-02-15T14:56:38;15.10;86.70
23385;DHT22;11865;45.394;10.978;2023-02-15T14:59:17;15.00;85.30
23385;DHT22;11865;45.394;10.978;2023-02-15T15:02:01;15.10;86.80
23385;DHT22;11865;45.394;10.978;2023-02-15T15:04:37;15.10;86.50
23385;DHT22;11865;45.394;10.978;2023-02-15T15:07:20;15.00;85.90
23385;DHT22;11865;45.394;10.978;2023-02-15T15:10:00;14.90;87.10
23385;DHT22;11865;45.394;10.978;2023-02-15T15:14:59;14.80;86.90
23385;DHT22;11865;45.394;10.978;2023-02-15T15:20:04;14.70;87.40
23385;DHT22;11865;45.394;10.978;2023-02-15T15:22:35;14.60;87.30
23385;DHT22;11865;45.394;10.978;2023-02-15T15:27:48;14.80;86.70
23385;DHT22;11865;45.394;10.978;2023-02-15T15:41:41;14.70;86.20
23385;DHT22;11865;45.394;10.978;2023-02-15T15:50:31;14.50;88.60
23385;DHT22;11865;45.394;10.978;2023-02-15T15:53:01;14.50;88.40
23385;DHT22;11865;45.394;10.978;2023-02-15T15:55:31;14.50;87.90
23385;DHT22;11865;45.394;10.978;2023-02-15T15:58:05;14.50;88.00
23385;DHT22;11865;45.394;10.978;2023-02-15T16:00:37;14.40;88.30
23385;DHT22;11865;45.394;10.978;2023-02-15T16:03:23;14.30;88.40
23385;DHT22;11865;45.394;10.978;2023-02-15T16:05:51;14.20;89.30
23385;DHT22;11865;45.394;10.978;2023-02-15T16:08:34;14.20;89.40
23385;DHT22;11865;45.394;10.978;2023-02-15T16:11:24;14.00;90.10
23385;DHT22;11865;45.394;10.978;2023-02-15T16:13:52;13.90;90.00
23385;DHT22;11865;45.394;10.978;2023-02-15T16:16:28;13.80;90.20
23385;DHT22;11865;45.394;10.978;2023-02-15T16:18:56;13.80;90.90
23385;DHT22;11865;45.394;10.978;2023-02-15T16:21:33;13.70;90.80
23385;DHT22;11865;45.394;10.978;2023-02-15T16:24:25;13.60;91.00
23385;DHT22;11865;45.394;10.978;2023-02-15T16:29:43;13.20;92.00
23385;DHT22;11865;45.394;10.978;2023-02-15T16:32:22;13.10;92.30
23385;DHT22;11865;45.394;10.978;2023-02-15T16:34:58;12.80;93.10
23385;DHT22;11865;45.394;10.978;2023-02-15T16:37:31;12.60;93.20
23385;DHT22;11865;45.394;10.978;2023-02-15T16:39:59;12.70;92.90
23385;DHT22;11865;45.394;10.978;2023-02-15T16:42:26;12.70;92.90
23385;DHT22;11865;45.394;10.978;2023-02-15T16:45:01;12.90;92.30
23385;DHT22;11865;45.394;10.978;2023-02-15T16:47:33;13.00;91.80
23385;DHT22;11865;45.394;10.978;2023-02-15T16:50:04;13.00;91.70
23385;DHT22;11865;45.394;10.978;2023-02-15T16:52:32;13.10;91.50
23385;DHT22;11865;45.394;10.978;2023-02-15T16:55:03;13.10;91.40
23385;DHT22;11865;45.394;10.978;2023-02-15T16:57:36;12.90;92.90
23385;DHT22;11865;45.394;10.978;2023-02-15T17:00:07;12.60;92.30
23385;DHT22;11865;45.394;10.978;2023-02-15T17:03:38;12.40;93.50
23385;DHT22;11865;45.394;10.978;2023-02-15T17:05:41;12.00;93.90
23385;DHT22;11865;45.394;10.978;2023-02-15T17:08:25;11.90;94.50
23385;DHT22;11865;45.394;10.978;2023-02-15T17:13:28;11.40;95.30
23385;DHT22;11865;45.394;10.978;2023-02-15T17:18:30;11.40;95.10
23385;DHT22;11865;45.394;10.978;2023-02-15T17:21:01;11.30;95.60
23385;DHT22;11865;45.394;10.978;2023-02-15T17:23:50;10.90;96.20
23385;DHT22;11865;45.394;10.978;2023-02-15T17:26:24;10.70;96.50
23385;DHT22;11865;45.394;10.978;2023-02-15T17:28:58;10.70;96.50
23385;DHT22;11865;45.394;10.978;2023-02-15T17:31:30;10.50;97.00
23385;DHT22;11865;45.394;10.978;2023-02-15T17:34:00;10.30;97.20
23385;DHT22;11865;45.394;10.978;2023-02-15T17:36:30;10.20;97.50
23385;DHT22;11865;45.394;10.978;2023-02-15T17:41:35;10.70;96.90
23385;DHT22;11865;45.394;10.978;2023-02-15T17:44:04;10.70;96.50
23385;DHT22;11865;45.394;10.978;2023-02-15T17:46:36;10.80;96.70
23385;DHT22;11865;45.394;10.978;2023-02-15T17:49:04;10.60;96.60
23385;DHT22;11865;45.394;10.978;2023-02-15T17:51:32;9.90;97.50
23385;DHT22;11865;45.394;10.978;2023-02-15T17:54:02;9.70;98.20
23385;DHT22;11865;45.394;10.978;2023-02-15T17:57:02;9.90;98.20
23385;DHT22;11865;45.394;10.978;2023-02-15T17:59:32;10.50;97.40
23385;DHT22;11865;45.394;10.978;2023-02-15T18:02:00;10.40;96.80
23385;DHT22;11865;45.394;10.978;2023-02-15T18:04:46;9.80;97.70
23385;DHT22;11865;45.394;10.978;2023-02-15T18:07:32;9.10;98.40
23385;DHT22;11865;45.394;10.978;2023-02-15T18:10:18;8.70;99.50
23385;DHT22;11865;45.394;10.978;2023-02-15T18:13:05;8.50;99.90
23385;DHT22;11865;45.394;10.978;2023-02-15T18:15:33;9.00;99.90
23385;DHT22;11865;45.394;10.978;2023-02-15T18:18:01;9.60;99.30
23385;DHT22;11865;45.394;10.978;2023-02-15T18:20:34;9.10;99.40
23385;DHT22;11865;45.394;10.978;2023-02-15T18:23:03;8.70;99.90
23385;DHT22;11865;45.394;10.978;2023-02-15T18:25:30;8.60;99.90
23385;DHT22;11865;45.394;10.978;2023-02-15T18:27:58;8.30;99.90
23385;DHT22;11865;45.394;10.978;2023-02-15T18:30:25;8.00;99.90
23385;DHT22;11865;45.394;10.978;2023-02-15T18:32:55;7.70;99.90
23385;DHT22;11865;45.394;10.978;2023-02-15T18:35:26;7.50;99.90
23385;DHT22;11865;45.394;10.978;2023-02-15T18:37:55;7.40;99.90
23385;DHT22;11865;45.394;10.978;2023-02-15T18:40:26;7.20;99.90
23385;DHT22;11865;45.394;10.978;2023-02-15T18:42:54;7.00;99.90
23385;DHT22;11865;45.394;10.978;2023-02-15T18:45:28;6.90;99.90
23385;DHT22;11865;45.394;10.978;2023-02-15T18:47:59;7.10;99.90
23385;DHT22;11865;45.394;10.978;2023-02-15T18:50:31;7.40;99.90
23385;DHT22;11865;45.394;10.978;2023-02-15T18:53:01;7.40;99.90
23385;DHT22;11865;45.394;10.978;2023-02-15T18:55:29;7.30;99.90
23385;DHT22;11865;45.394;10.978;2023-02-15T18:57:59;7.70;99.90
23385;DHT22;11865;45.394;10.978;2023-02-15T19:00:30;8.20;99.90
23385;DHT22;11865;45.394;10.978;2023-02-15T19:03:01;8.80;99.90
23385;DHT22;11865;45.394;10.978;2023-02-15T19:05:29;9.00;99.90
23385;DHT22;11865;45.394;10.978;2023-02-15T19:07:59;8.70;99.90
23385;DHT22;11865;45.394;10.978;2023-02-15T19:10:30;8.80;99.90
23385;DHT22;11865;45.394;10.978;2023-02-15T19:12:57;9.10;99.90
23385;DHT22;11865;45.394;10.978;2023-02-15T19:15:27;9.40;99.90